createdAt,value
2024-02-24T00:01:53.796Z,95241.31
2024-02-24T00:04:22.738Z,95229.72
2024-02-24T00:06:49.355Z,95228.47
2024-02-24T00:09:18.378Z,95234.53
2024-02-24T00:11:47.516Z,95225.56
2024-02-24T00:14:14.248Z,95226.31
2024-02-24T00:16:40.859Z,95234.59
2024-02-24T00:19:07.513Z,95236.06
2024-02-24T00:21:34.139Z,95232.53
2024-02-24T00:24:03.220Z,95237.38
2024-02-24T00:26:29.859Z,95249.91
2024-02-24T00:28:56.454Z,95243.25
2024-02-24T00:31:22.983Z,95233.53
2024-02-24T00:33:49.591Z,95239.56
2024-02-24T00:36:19.917Z,95245.19
2024-02-24T00:38:46.900Z,95235.97
2024-02-24T00:41:16.347Z,95237.78
2024-02-24T00:43:46.291Z,95250.50
2024-02-24T00:46:15.157Z,95248.44
2024-02-24T00:48:44.022Z,95245.22
2024-02-24T00:51:13.056Z,95253.06
2024-02-24T00:53:40.169Z,95253.50
2024-02-24T00:56:07.159Z,95250.19
2024-02-24T00:58:35.968Z,95250.50
2024-02-24T01:01:05.370Z,95253.16
2024-02-24T01:03:34.365Z,95248.72
2024-02-24T01:06:00.966Z,95256.38
2024-02-24T01:08:32.189Z,95247.50
2024-02-24T01:10:59.488Z,95247.50
2024-02-24T01:13:26.081Z,95252.13
2024-02-24T01:15:54.995Z,95246.81
2024-02-24T01:18:23.769Z,95241.28
2024-02-24T01:20:50.921Z,95235.31
2024-02-24T01:23:19.866Z,95227.25
2024-02-24T01:25:51.205Z,95238.34
2024-02-24T01:28:18.624Z,95223.28
2024-02-24T01:30:47.237Z,95234.78
2024-02-24T01:33:16.124Z,95236.28
2024-02-24T01:35:42.779Z,95232.50
2024-02-24T01:38:09.402Z,95239.47
2024-02-24T01:40:36.298Z,95222.41
2024-02-24T01:43:22.178Z,95232.41
2024-02-24T01:45:51.501Z,95242.09
2024-02-24T01:48:18.700Z,95240.31
2024-02-24T01:50:50.816Z,95244.41
2024-02-24T01:53:22.036Z,95239.16
2024-02-24T01:55:49.568Z,95247.94
2024-02-24T01:58:18.747Z,95250.19
2024-02-24T02:00:48.806Z,95240.38
2024-02-24T02:03:15.591Z,95258.44
2024-02-24T02:05:42.765Z,95252.13
2024-02-24T02:08:14.165Z,95245.78
2024-02-24T02:10:52.589Z,95255.06
2024-02-24T02:13:22.905Z,95248.56
2024-02-24T02:15:54.545Z,95245.03
2024-02-24T02:18:24.003Z,95249.63
2024-02-24T02:20:53.771Z,95250.34
2024-02-24T02:23:22.873Z,95254.38
2024-02-24T02:25:51.774Z,95262.31
2024-02-24T02:28:20.540Z,95252.34
2024-02-24T02:30:47.088Z,95258.22
2024-02-24T02:33:13.832Z,95265.75
2024-02-24T02:35:43.619Z,95256.78
2024-02-24T02:38:12.586Z,95256.66
2024-02-24T02:40:41.489Z,95255.00
2024-02-24T02:43:08.259Z,95247.22
2024-02-24T02:45:34.846Z,95250.50
2024-02-24T02:48:01.579Z,95254.28
2024-02-24T02:50:28.282Z,95258.47
2024-02-24T02:52:54.884Z,95264.88
2024-02-24T02:55:22.149Z,95269.38
2024-02-24T02:57:52.091Z,95251.00
2024-02-24T03:00:18.981Z,95270.41
2024-02-24T03:02:45.678Z,95263.03
2024-02-24T03:05:12.645Z,95260.69
2024-02-24T03:07:41.713Z,95275.22
2024-02-24T03:10:13.143Z,95265.22
2024-02-24T03:12:39.795Z,95282.00
2024-02-24T03:15:09.348Z,95288.28
2024-02-24T03:17:36.056Z,95299.44
2024-02-24T03:20:04.586Z,95293.72
2024-02-24T03:22:33.363Z,95299.78
2024-02-24T03:25:04.748Z,95292.06
2024-02-24T03:27:31.338Z,95303.63
2024-02-24T03:30:02.621Z,95310.44
2024-02-24T03:32:31.673Z,95309.28
2024-02-24T03:34:58.305Z,95308.69
2024-02-24T03:37:27.117Z,95305.56
2024-02-24T03:39:53.673Z,95310.69
2024-02-24T03:42:20.304Z,95312.97
2024-02-24T03:44:46.937Z,95327.09
2024-02-24T03:47:13.600Z,95330.22
2024-02-24T03:49:42.976Z,95333.78
2024-02-24T03:52:09.635Z,95337.84
2024-02-24T03:54:38.559Z,95339.66
2024-02-24T03:57:05.350Z,95346.00
2024-02-24T03:59:32.030Z,95357.06
2024-02-24T04:02:00.979Z,95352.63
2024-02-24T04:04:27.555Z,95355.75
2024-02-24T04:06:54.210Z,95346.78
2024-02-24T04:09:20.819Z,95364.94
2024-02-24T04:11:49.850Z,95350.78
2024-02-24T04:14:16.556Z,95367.28
2024-02-24T04:16:43.620Z,95369.81
2024-02-24T04:19:10.294Z,95371.06
2024-02-24T04:21:39.493Z,95361.75
2024-02-24T04:24:06.634Z,95365.56
2024-02-24T04:26:33.283Z,95356.50
2024-02-24T04:29:02.350Z,95365.28
2024-02-24T04:31:30.982Z,95364.88
2024-02-24T04:33:57.621Z,95370.72
2024-02-24T04:36:24.271Z,95362.84
2024-02-24T04:38:52.953Z,95370.94
2024-02-24T04:41:19.646Z,95370.03
2024-02-24T04:43:48.390Z,95371.53
2024-02-24T04:46:19.700Z,95361.03
2024-02-24T04:48:48.778Z,95363.84
2024-02-24T04:51:17.929Z,95369.28
2024-02-24T04:53:44.533Z,95376.16
2024-02-24T04:56:11.461Z,95394.47
2024-02-24T04:58:42.585Z,95370.88
2024-02-24T05:01:09.136Z,95377.13
2024-02-24T05:03:37.979Z,95362.69
2024-02-24T05:06:09.816Z,95365.84
2024-02-24T05:08:39.586Z,95373.56
2024-02-24T05:11:06.358Z,95382.03
2024-02-24T05:13:36.213Z,95377.06
2024-02-24T05:16:08.457Z,95381.53
2024-02-24T05:18:35.081Z,95389.22
2024-02-24T05:21:02.031Z,95382.38
2024-02-24T05:23:28.680Z,95384.22
2024-02-24T05:25:55.261Z,95391.44
2024-02-24T05:28:24.237Z,95391.38
2024-02-24T05:30:54.102Z,95392.22
2024-02-24T05:33:20.854Z,95401.72
2024-02-24T05:35:47.647Z,95405.06
2024-02-24T05:38:14.357Z,95413.81
2024-02-24T05:40:40.998Z,95411.47
2024-02-24T05:43:09.985Z,95416.41
2024-02-24T05:45:36.627Z,95421.31
2024-02-24T05:48:04.764Z,95425.88
2024-02-24T05:50:33.972Z,95430.06
2024-02-24T05:53:00.584Z,95433.41
2024-02-24T05:55:29.346Z,95441.13
2024-02-24T05:57:57.685Z,95444.56
2024-02-24T06:00:26.744Z,95443.47
2024-02-24T06:02:55.770Z,95455.25
2024-02-24T06:05:24.693Z,95456.06
2024-02-24T06:07:53.660Z,95457.97
2024-02-24T06:10:21.324Z,95455.59
2024-02-24T06:12:47.817Z,95460.59
2024-02-24T06:15:14.437Z,95462.03
2024-02-24T06:17:41.098Z,95475.81
2024-02-24T06:20:08.660Z,95487.31
2024-02-24T06:22:35.229Z,95475.47
2024-02-24T06:25:01.810Z,95468.25
2024-02-24T06:27:32.295Z,95477.88
2024-02-24T06:29:59.193Z,95479.47
2024-02-24T06:32:28.791Z,95482.28
2024-02-24T06:34:57.712Z,95501.66
2024-02-24T06:37:24.269Z,95499.38
2024-02-24T06:39:50.899Z,95502.97
2024-02-24T06:42:19.898Z,95497.03
2024-02-24T06:44:46.506Z,95501.69
2024-02-24T06:47:24.625Z,95512.94
2024-02-24T06:49:55.546Z,95509.00
2024-02-24T06:52:24.661Z,95520.94
2024-02-24T06:54:52.552Z,95516.72
2024-02-24T06:57:24.158Z,95534.09
2024-02-24T06:59:50.779Z,95537.25
2024-02-24T07:02:21.231Z,95535.63
2024-02-24T07:04:50.360Z,95538.66
2024-02-24T07:07:19.515Z,95541.28
2024-02-24T07:09:49.336Z,95543.44
2024-02-24T07:12:15.955Z,95560.59
2024-02-24T07:14:42.553Z,95559.81
2024-02-24T07:17:11.632Z,95560.94
2024-02-24T07:19:38.207Z,95566.66
2024-02-24T07:22:04.867Z,95561.22
2024-02-24T07:24:33.647Z,95561.50
2024-02-24T07:27:02.740Z,95562.59
2024-02-24T07:29:32.692Z,95568.13
2024-02-24T07:31:59.414Z,95575.06
2024-02-24T07:34:26.075Z,95570.06
2024-02-24T07:36:54.714Z,95579.63
2024-02-24T07:39:23.833Z,95580.38
2024-02-24T07:41:50.454Z,95581.00
2024-02-24T07:44:20.306Z,95584.84
2024-02-24T07:46:46.888Z,95597.72
2024-02-24T07:49:15.811Z,95599.63
2024-02-24T07:51:45.050Z,95602.88
2024-02-24T07:54:11.749Z,95613.63
2024-02-24T07:56:38.443Z,95597.81
2024-02-24T07:59:07.502Z,95608.81
2024-02-24T08:01:36.326Z,95609.28
2024-02-24T08:04:05.372Z,95612.06
2024-02-24T08:06:34.122Z,95611.41
2024-02-24T08:09:03.673Z,95621.22
2024-02-24T08:11:35.867Z,95618.88
2024-02-24T08:14:04.419Z,95609.38
2024-02-24T08:16:33.865Z,95610.09
2024-02-24T08:19:00.690Z,95613.69
2024-02-24T08:21:32.330Z,95632.06
2024-02-24T08:23:58.963Z,95633.41
2024-02-24T08:26:25.517Z,95633.72
2024-02-24T08:28:54.597Z,95630.94
2024-02-24T08:31:21.157Z,95629.03
2024-02-24T08:33:52.358Z,95627.44
2024-02-24T08:36:21.593Z,95631.28
2024-02-24T08:38:48.319Z,95642.31
2024-02-24T08:41:17.084Z,95641.91
2024-02-24T08:43:46.063Z,95643.75
2024-02-24T08:46:12.809Z,95639.44
2024-02-24T08:48:39.458Z,95643.50
2024-02-24T08:51:10.910Z,95645.06
2024-02-24T08:53:39.884Z,95647.38
2024-02-24T08:56:09.475Z,95649.50
2024-02-24T08:58:38.309Z,95648.81
2024-02-24T09:01:05.830Z,95659.38
2024-02-24T09:03:32.387Z,95649.16
2024-02-24T09:06:01.633Z,95657.69
2024-02-24T09:08:33.156Z,95659.19
2024-02-24T09:11:00.036Z,95650.31
2024-02-24T09:13:29.059Z,95657.34
2024-02-24T09:15:55.594Z,95652.69
2024-02-24T09:18:26.121Z,95649.38
2024-02-24T09:20:54.935Z,95650.09
2024-02-24T09:23:21.546Z,95644.63
2024-02-24T09:25:48.159Z,95641.19
2024-02-24T09:28:16.933Z,95648.09
2024-02-24T09:30:43.554Z,95641.00
2024-02-24T09:33:10.322Z,95642.38
2024-02-24T09:35:37.033Z,95635.97
2024-02-24T09:38:08.177Z,95633.53
2024-02-24T09:40:37.006Z,95646.72
2024-02-24T09:43:06.792Z,95650.38
2024-02-24T09:45:35.969Z,95643.81
2024-02-24T09:48:04.047Z,95639.88
2024-02-24T09:50:30.882Z,95647.69
2024-02-24T09:52:59.756Z,95648.31
2024-02-24T09:55:28.798Z,95648.38
2024-02-24T09:57:57.040Z,95658.56
2024-02-24T10:00:27.086Z,95655.66
2024-02-24T10:02:53.907Z,95657.81
2024-02-24T10:05:22.972Z,95664.41
2024-02-24T10:07:52.132Z,95660.00
2024-02-24T10:10:19.000Z,95655.78
2024-02-24T10:13:03.713Z,95663.69
2024-02-24T10:15:37.900Z,95660.69
2024-02-24T10:18:06.806Z,95653.88
2024-02-24T10:20:35.899Z,95649.16
2024-02-24T10:23:05.016Z,95654.16
2024-02-24T10:25:36.358Z,95656.97
2024-02-24T10:28:06.765Z,95649.78
2024-02-24T10:30:33.766Z,95662.50
2024-02-24T10:33:01.170Z,95665.03
2024-02-24T10:35:30.381Z,95663.19
2024-02-24T10:38:11.121Z,95674.81
2024-02-24T10:40:46.439Z,95670.91
2024-02-24T10:43:16.251Z,95681.19
2024-02-24T10:45:45.314Z,95668.34
2024-02-24T10:48:12.133Z,95677.75
2024-02-24T10:50:41.225Z,95657.38
2024-02-24T10:53:09.720Z,95658.03
2024-02-24T10:55:38.304Z,95665.03
2024-02-24T10:58:04.977Z,95647.97
2024-02-24T11:00:33.532Z,95658.25
2024-02-24T11:03:05.431Z,95650.88
2024-02-24T11:05:36.767Z,95658.91
2024-02-24T11:08:03.644Z,95667.03
2024-02-24T11:10:36.614Z,95659.53
2024-02-24T11:13:03.699Z,95660.06
2024-02-24T11:15:33.742Z,95647.06
2024-02-24T11:18:02.701Z,95651.53
2024-02-24T11:20:35.870Z,95657.69
2024-02-24T11:23:33.110Z,95664.06
2024-02-24T11:26:12.314Z,95644.88
2024-02-24T11:28:45.596Z,95652.34
2024-02-24T11:31:31.739Z,95652.44
2024-02-24T11:34:09.407Z,95648.72
2024-02-24T11:36:39.453Z,95653.16
2024-02-24T11:39:12.701Z,95645.88
2024-02-24T11:41:41.804Z,95655.59
2024-02-24T11:44:09.188Z,95646.25
2024-02-24T11:46:40.352Z,95650.31
2024-02-24T11:49:07.066Z,95667.97
2024-02-24T11:51:33.889Z,95662.84
2024-02-24T11:54:00.677Z,95663.31
2024-02-24T11:56:27.909Z,95656.03
2024-02-24T11:58:57.434Z,95671.53
2024-02-24T12:01:24.449Z,95660.69
2024-02-24T12:03:52.126Z,95643.88
2024-02-24T12:06:25.171Z,95650.97
2024-02-24T12:08:56.307Z,95646.22
2024-02-24T12:11:23.091Z,95622.66
2024-02-24T12:13:54.305Z,95651.63
2024-02-24T12:16:25.239Z,95643.53
2024-02-24T12:18:52.082Z,95644.41
2024-02-24T12:21:18.725Z,95647.78
2024-02-24T12:23:48.323Z,95647.22
2024-02-24T12:26:22.779Z,95641.66
2024-02-24T12:28:54.469Z,95644.56
2024-02-24T12:31:23.858Z,95651.16
2024-02-24T12:33:51.429Z,95664.03
2024-02-24T12:36:18.152Z,95653.56
2024-02-24T12:38:47.162Z,95667.44
2024-02-24T12:41:14.594Z,95664.66
2024-02-24T12:43:45.464Z,95663.00
2024-02-24T12:46:12.163Z,95669.47
2024-02-24T12:48:42.553Z,95658.19
2024-02-24T12:51:11.308Z,95654.63
2024-02-24T12:53:38.060Z,95650.63
2024-02-24T12:56:05.044Z,95656.16
2024-02-24T12:58:31.757Z,95657.50
2024-02-24T13:01:00.680Z,95667.13
2024-02-24T13:03:27.260Z,95659.72
2024-02-24T13:05:56.394Z,95668.44
2024-02-24T13:08:23.089Z,95663.09
2024-02-24T13:10:49.839Z,95665.06
2024-02-24T13:13:19.072Z,95671.06
2024-02-24T13:15:46.385Z,95667.69
2024-02-24T13:18:13.180Z,95676.09
2024-02-24T13:20:42.176Z,95671.06
2024-02-24T13:23:08.794Z,95676.03
2024-02-24T13:25:38.372Z,95673.19
2024-02-24T13:28:08.257Z,95680.41
2024-02-24T13:30:35.497Z,95675.28
2024-02-24T13:33:02.855Z,95685.09
2024-02-24T13:35:31.895Z,95683.38
2024-02-24T13:37:58.622Z,95706.56
2024-02-24T13:40:25.914Z,95697.25
2024-02-24T13:42:53.413Z,95691.44
2024-02-24T13:45:20.041Z,95705.59
2024-02-24T13:47:48.146Z,95698.81
2024-02-24T13:50:15.970Z,95715.81
2024-02-24T13:52:44.947Z,95720.38
2024-02-24T13:55:11.586Z,95718.47
2024-02-24T13:57:38.548Z,95719.88
2024-02-24T14:00:11.798Z,95721.84
2024-02-24T14:02:38.519Z,95720.91
2024-02-24T14:05:05.426Z,95720.75
2024-02-24T14:07:36.616Z,95722.78
2024-02-24T14:10:05.807Z,95727.19
2024-02-24T14:12:32.355Z,95733.78
2024-02-24T14:15:02.085Z,95734.72
2024-02-24T14:17:29.624Z,95738.41
2024-02-24T14:20:00.406Z,95746.19
2024-02-24T14:22:29.634Z,95745.91
2024-02-24T14:24:57.156Z,95745.56
2024-02-24T14:27:23.733Z,95752.84
2024-02-24T14:29:52.866Z,95752.72
2024-02-24T14:32:19.460Z,95753.69
2024-02-24T14:34:46.186Z,95753.22
2024-02-24T14:37:17.325Z,95751.78
2024-02-24T14:39:48.667Z,95750.47
2024-02-24T14:42:17.535Z,95755.22
2024-02-24T14:44:44.137Z,95754.44
2024-02-24T14:47:10.733Z,95753.75
2024-02-24T14:49:40.323Z,95759.09
2024-02-24T14:52:09.828Z,95755.50
2024-02-24T14:54:42.231Z,95756.41
2024-02-24T14:57:13.522Z,95754.09
2024-02-24T14:59:42.090Z,95754.97
2024-02-24T15:02:09.474Z,95755.41
2024-02-24T15:04:36.318Z,95762.50
2024-02-24T15:07:03.630Z,95757.41
2024-02-24T15:09:30.953Z,95765.28
2024-02-24T15:11:57.621Z,95764.81
2024-02-24T15:14:24.952Z,95771.53
2024-02-24T15:16:51.765Z,95773.50
2024-02-24T15:19:26.522Z,95781.59
2024-02-24T15:21:55.484Z,95783.31
2024-02-24T15:24:26.909Z,95782.34
2024-02-24T15:26:53.533Z,95776.91
2024-02-24T15:29:22.386Z,95782.31
2024-02-24T15:31:53.489Z,95774.84
2024-02-24T15:34:23.611Z,95780.91
2024-02-24T15:36:51.450Z,95777.31
2024-02-24T15:39:18.035Z,95789.84
2024-02-24T15:41:50.284Z,95797.69
2024-02-24T15:44:19.171Z,95798.13
2024-02-24T15:46:48.102Z,95793.94
2024-02-24T15:49:16.949Z,95794.50
2024-02-24T15:51:43.553Z,95807.88
2024-02-24T15:54:10.112Z,95808.50
2024-02-24T15:56:36.727Z,95804.63
2024-02-24T15:59:03.262Z,95809.69
2024-02-24T16:01:29.859Z,95811.38
2024-02-24T16:04:01.338Z,95814.41
2024-02-24T16:06:28.089Z,95808.41
2024-02-24T16:08:54.912Z,95814.69
2024-02-24T16:11:22.021Z,95823.28
2024-02-24T16:13:48.782Z,95814.94
2024-02-24T16:16:15.911Z,95822.00
2024-02-24T16:18:45.091Z,95835.41
2024-02-24T16:21:15.660Z,95832.66
2024-02-24T16:23:42.271Z,95833.66
2024-02-24T16:26:14.157Z,95836.13
2024-02-24T16:28:40.757Z,95837.16
2024-02-24T16:31:10.221Z,95835.13
2024-02-24T16:33:41.667Z,95835.97
2024-02-24T16:36:13.690Z,95851.41
2024-02-24T16:38:40.226Z,95852.25
2024-02-24T16:41:09.826Z,95855.38
2024-02-24T16:43:38.697Z,95844.34
2024-02-24T16:46:05.321Z,95849.78
2024-02-24T16:48:32.093Z,95852.16
2024-02-24T16:50:58.733Z,95856.69
2024-02-24T16:53:29.970Z,95852.22
2024-02-24T16:55:58.882Z,95847.50
2024-02-24T16:58:27.791Z,95847.91
2024-02-24T17:00:54.390Z,95852.66
2024-02-24T17:03:21.006Z,95858.13
2024-02-24T17:05:50.342Z,95861.69
2024-02-24T17:08:21.156Z,95864.72
2024-02-24T17:10:48.076Z,95861.16
2024-02-24T17:13:14.831Z,95875.75
2024-02-24T17:15:43.897Z,95875.66
2024-02-24T17:18:17.858Z,95878.50
2024-02-24T17:20:49.874Z,95885.44
2024-02-24T17:23:19.006Z,95884.25
2024-02-24T17:25:45.610Z,95890.66
2024-02-24T17:28:14.673Z,95883.72
2024-02-24T17:30:43.452Z,95882.47
2024-02-24T17:33:10.940Z,95893.34
2024-02-24T17:35:37.761Z,95889.59
2024-02-24T17:38:05.097Z,95901.50
2024-02-24T17:40:35.031Z,95902.84
2024-02-24T17:43:03.981Z,95901.53
2024-02-24T17:45:30.545Z,95901.56
2024-02-24T17:47:57.224Z,95907.03
2024-02-24T17:50:26.408Z,95909.41
2024-02-24T17:52:53.735Z,95918.72
2024-02-24T17:55:22.531Z,95923.97
2024-02-24T17:57:49.122Z,95923.78
2024-02-24T18:00:16.517Z,95910.31
2024-02-24T18:02:43.144Z,95920.53
2024-02-24T18:05:11.040Z,95924.81
2024-02-24T18:07:40.205Z,95922.91
2024-02-24T18:10:07.147Z,95922.59
2024-02-24T18:12:37.629Z,95937.22
2024-02-24T18:15:08.011Z,95928.13
2024-02-24T18:17:42.253Z,95928.56
2024-02-24T18:20:09.719Z,95926.31
2024-02-24T18:22:43.246Z,95927.91
2024-02-24T18:25:11.619Z,95924.69
2024-02-24T18:27:38.280Z,95925.22
2024-02-24T18:30:07.076Z,95924.50
2024-02-24T18:32:37.108Z,95924.09
2024-02-24T18:35:06.060Z,95931.88
2024-02-24T18:37:32.601Z,95927.44
2024-02-24T18:40:05.908Z,95928.50
2024-02-24T18:42:33.135Z,95921.50
2024-02-24T18:45:02.392Z,95924.31
2024-02-24T18:47:31.352Z,95924.00
2024-02-24T18:50:00.848Z,95928.59
2024-02-24T18:52:28.418Z,95932.47
2024-02-24T18:54:57.647Z,95933.81
2024-02-24T18:57:26.506Z,95926.91
2024-02-24T18:59:57.100Z,95923.06
2024-02-24T19:02:23.846Z,95922.94
2024-02-24T19:04:52.045Z,95925.72
2024-02-24T19:07:21.351Z,95926.25
2024-02-24T19:09:50.272Z,95926.38
2024-02-24T19:12:17.989Z,95932.47
2024-02-24T19:14:51.762Z,95934.75
2024-02-24T19:17:21.726Z,95937.75
2024-02-24T19:19:53.132Z,95941.75
2024-02-24T19:22:19.767Z,95937.44
2024-02-24T19:24:48.566Z,95930.28
2024-02-24T19:27:15.168Z,95926.16
2024-02-24T19:29:45.446Z,95936.84
2024-02-24T19:32:12.646Z,95935.00
2024-02-24T19:34:39.533Z,95933.47
2024-02-24T19:37:10.176Z,95944.97
2024-02-24T19:39:37.567Z,95945.75
2024-02-24T19:42:06.645Z,95944.22
2024-02-24T19:44:38.962Z,95953.59
2024-02-24T19:47:13.145Z,95954.69
2024-02-24T19:49:39.812Z,95963.69
2024-02-24T19:52:06.544Z,95963.22
2024-02-24T19:54:38.111Z,95969.22
2024-02-24T19:57:05.026Z,95957.22
2024-02-24T19:59:31.807Z,95962.53
2024-02-24T20:02:01.453Z,95967.94
2024-02-24T20:04:28.145Z,95968.31
2024-02-24T20:06:57.138Z,95967.59
2024-02-24T20:09:25.967Z,95967.53
2024-02-24T20:11:54.927Z,95966.03
2024-02-24T20:14:23.961Z,95963.09
2024-02-24T20:16:50.588Z,95969.50
2024-02-24T20:19:19.707Z,95971.78
2024-02-24T20:21:46.829Z,95972.63
2024-02-24T20:24:13.438Z,95962.50
2024-02-24T20:26:40.175Z,95970.53
2024-02-24T20:29:08.905Z,95969.47
2024-02-24T20:31:37.853Z,95972.47
2024-02-24T20:34:08.301Z,95979.28
2024-02-24T20:36:35.804Z,95987.22
2024-02-24T20:39:02.647Z,95978.84
2024-02-24T20:41:32.465Z,95983.19
2024-02-24T20:44:00.996Z,95993.53
2024-02-24T20:46:27.590Z,95979.38
2024-02-24T20:48:56.646Z,95984.38
2024-02-24T20:51:28.017Z,95988.63
2024-02-24T20:53:59.385Z,95983.72
2024-02-24T20:56:26.388Z,95991.03
2024-02-24T20:58:58.062Z,95985.47
2024-02-24T21:01:27.821Z,96002.00
2024-02-24T21:03:57.382Z,96002.94
2024-02-24T21:06:25.407Z,96002.25
2024-02-24T21:08:52.062Z,96007.84
2024-02-24T21:11:21.803Z,96013.56
2024-02-24T21:13:53.160Z,96004.34
2024-02-24T21:16:19.795Z,96010.47
2024-02-24T21:18:48.540Z,96007.78
2024-02-24T21:21:17.764Z,96012.38
2024-02-24T21:23:45.994Z,96018.50
2024-02-24T21:26:12.615Z,96010.84
2024-02-24T21:28:39.244Z,96014.31
2024-02-24T21:31:05.756Z,96013.56
2024-02-24T21:33:34.677Z,96008.63
2024-02-24T21:36:01.449Z,96009.81
2024-02-24T21:38:34.580Z,96014.78
2024-02-24T21:41:01.166Z,96027.03
2024-02-24T21:43:27.692Z,96017.50
2024-02-24T21:45:57.225Z,96018.25
2024-02-24T21:48:26.319Z,96011.34
2024-02-24T21:50:53.188Z,96006.78
2024-02-24T21:53:19.887Z,96009.47
2024-02-24T21:55:49.018Z,95983.50
2024-02-24T21:58:15.645Z,96010.22
2024-02-24T22:00:42.267Z,96014.97
2024-02-24T22:03:08.963Z,96019.91
2024-02-24T22:05:35.588Z,96015.69
2024-02-24T22:08:02.261Z,96017.59
2024-02-24T22:10:29.419Z,96003.81
2024-02-24T22:12:56.060Z,96012.97
2024-02-24T22:15:27.412Z,96003.84
2024-02-24T22:17:54.233Z,96003.44
2024-02-24T22:20:25.421Z,96002.28
2024-02-24T22:22:59.201Z,96007.69
2024-02-24T22:25:28.064Z,96004.59
2024-02-24T22:27:54.609Z,96001.16
2024-02-24T22:30:23.779Z,96011.88
2024-02-24T22:32:50.590Z,95998.09
2024-02-24T22:35:20.319Z,96002.34
2024-02-24T22:37:49.335Z,96008.06
2024-02-24T22:40:20.864Z,96001.56
2024-02-24T22:42:47.438Z,96000.03
2024-02-24T22:45:14.065Z,96005.00
2024-02-24T22:47:48.332Z,95999.31
2024-02-24T22:50:18.021Z,96006.56
2024-02-24T22:52:49.416Z,95999.31
2024-02-24T22:55:18.617Z,96012.69
2024-02-24T22:57:45.196Z,96005.81
2024-02-24T23:00:15.203Z,96008.88
2024-02-24T23:02:42.130Z,96013.09
2024-02-24T23:05:08.987Z,96009.25
2024-02-24T23:07:35.892Z,96013.81
2024-02-24T23:10:03.847Z,96003.91
2024-02-24T23:12:32.834Z,96010.38
2024-02-24T23:15:04.719Z,96012.31
2024-02-24T23:17:33.698Z,96014.22
2024-02-24T23:20:04.827Z,96018.06
2024-02-24T23:22:33.856Z,96023.41
2024-02-24T23:25:00.569Z,96023.41
2024-02-24T23:27:29.380Z,96032.97
2024-02-24T23:29:55.945Z,96039.44
2024-02-24T23:32:25.074Z,96029.53
2024-02-24T23:34:51.763Z,96044.44
2024-02-24T23:37:22.860Z,96049.03
2024-02-24T23:39:54.325Z,96040.22
2024-02-24T23:42:21.037Z,96041.38
2024-02-24T23:44:49.980Z,96046.34
2024-02-24T23:47:18.931Z,96041.38
2024-02-24T23:49:47.956Z,96050.53
2024-02-24T23:52:14.569Z,96050.91
2024-02-24T23:54:41.827Z,96044.81
2024-02-24T23:57:10.950Z,96036.78
2024-02-24T23:59:41.959Z,96038.69
